Time;durP1;ratioP1;P1;durP2;ratioP2;P2;SDS_P1;SDS_P2;PMS_P1;PMS_P2;Temp;Humidity;BMP_temperature;BMP_pressure;BME280_temperature;BME280_humidity;BME280_pressure;Samples;Min_cycle;Max_cycle;Signal;HPM_P1;HPM_P2
2022/07/03 00:02:43;;;;;;;2.10;2.00;;;21.10;29.50;;;;;;10320554;28;20223;-73
2022/07/03 00:07:47;;;;;;;1.90;1.80;;;21.00;30.00;;;;;;10328279;28;20773;-73
2022/07/03 00:12:50;;;;;;;2.50;2.10;;;20.90;29.90;;;;;;10319775;28;20226;-73
2022/07/03 00:17:55;;;;;;;2.43;2.13;;;20.70;30.00;;;;;;10316692;28;20238;-73
2022/07/03 00:23:03;;;;;;;2.50;2.30;;;20.50;30.40;;;;;;10318541;28;20285;-72
2022/07/03 00:28:08;;;;;;;2.53;1.90;;;20.40;31.10;;;;;;10323952;28;20246;-72
2022/07/03 00:33:13;;;;;;;2.13;2.00;;;20.40;30.60;;;;;;10319559;28;20238;-72
2022/07/03 00:38:17;;;;;;;2.03;1.93;;;20.40;31.10;;;;;;10325445;28;20226;-73
2022/07/03 00:43:21;;;;;;;4.57;4.17;;;20.30;30.90;;;;;;10319908;28;20719;-73
2022/07/03 00:48:26;;;;;;;5.83;4.67;;;20.10;30.50;;;;;;10317584;28;20226;-69
2022/07/03 00:53:32;;;;;;;3.00;2.70;;;20.00;31.30;;;;;;10321057;28;20223;-69
2022/07/03 00:58:36;;;;;;;2.13;2.03;;;19.90;31.10;;;;;;10324212;28;20230;-69
2022/07/03 01:03:45;;;;;;;2.20;1.80;;;19.90;31.10;;;;;;10318530;28;20793;-68
2022/07/03 01:08:51;;;;;;;5.80;2.47;;;19.90;31.60;;;;;;10315908;28;20227;-69
2022/07/03 01:14:07;;;;;;;2.33;2.13;;;19.80;31.80;;;;;;10329408;28;20253;-73
2022/07/03 01:19:27;;;;;;;2.37;2.10;;;19.70;32.10;;;;;;10330787;28;20226;-72
2022/07/03 01:24:44;;;;;;;2.40;2.20;;;19.70;32.70;;;;;;10322589;28;20230;-73
2022/07/03 01:29:56;;;;;;;4.07;3.70;;;19.70;32.60;;;;;;10325784;28;20231;-73
2022/07/03 01:35:02;;;;;;;2.43;2.23;;;19.50;32.60;;;;;;10329115;28;20235;-72
2022/07/03 01:40:07;;;;;;;2.40;2.20;;;19.50;32.40;;;;;;10329347;28;20229;-72
2022/07/03 01:45:15;;;;;;;3.20;2.90;;;19.40;31.90;;;;;;10328108;28;20234;-72
2022/07/03 01:50:22;;;;;;;3.33;2.80;;;19.30;33.00;;;;;;10330767;28;20238;-73
2022/07/03 01:55:27;;;;;;;3.00;2.70;;;19.30;32.90;;;;;;10324549;28;20226;-72
2022/07/03 02:00:32;;;;;;;2.80;2.50;;;19.30;32.50;;;;;;10322459;28;20766;-73
2022/07/03 02:05:43;;;;;;;1.93;1.63;;;19.20;32.80;;;;;;10326606;28;20230;-73
2022/07/03 02:10:52;;;;;;;3.63;1.70;;;19.20;33.30;;;;;;10326484;28;20231;-69
2022/07/03 02:15:59;;;;;;;2.40;1.80;;;19.10;32.90;;;;;;10322748;28;20663;-69
2022/07/03 02:21:13;;;;;;;2.60;2.00;;;19.00;33.10;;;;;;10330246;28;20583;-68
2022/07/03 02:26:18;;;;;;;1.80;1.70;;;18.90;33.60;;;;;;10325320;28;20229;-69
2022/07/03 02:31:25;;;;;;;3.93;2.30;;;18.80;33.30;;;;;;10321319;28;20234;-69
2022/07/03 02:36:30;;;;;;;4.00;2.70;;;18.70;34.00;;;;;;10333070;28;20692;-68
2022/07/03 02:41:47;;;;;;;2.60;2.40;;;18.70;33.20;;;;;;10322652;28;20233;-72
2022/07/03 02:47:01;;;;;;;2.23;2.03;;;18.70;34.40;;;;;;10324044;28;20226;-72
2022/07/03 02:52:14;;;;;;;2.33;2.13;;;18.70;34.40;;;;;;10323092;28;20227;-72
2022/07/03 02:57:19;;;;;;;2.77;1.70;;;18.70;34.30;;;;;;10325937;28;20227;-73
2022/07/03 03:02:52;;;;;;;2.20;2.00;;;18.70;34.00;;;;;;10321720;28;20797;-72
2022/07/03 03:08:12;;;;;;;2.03;1.83;;;18.70;34.10;;;;;;10322959;28;20235;-72
2022/07/03 03:13:19;;;;;;;2.00;1.90;;;18.60;34.00;;;;;;10325637;28;20678;-72
2022/07/03 03:18:27;;;;;;;2.73;2.13;;;18.60;33.50;;;;;;10321943;28;20740;-72
2022/07/03 03:23:48;;;;;;;2.17;1.70;;;18.50;33.70;;;;;;10318906;28;20238;-73
2022/07/03 03:28:54;;;;;;;2.93;1.83;;;18.40;34.60;;;;;;10328987;28;20285;-73
2022/07/03 03:34:00;;;;;;;2.07;1.80;;;18.30;33.80;;;;;;10326596;28;20736;-72
2022/07/03 03:39:03;;;;;;;2.13;2.00;;;18.20;34.40;;;;;;10321970;28;20223;-72
2022/07/03 03:44:06;;;;;;;4.07;2.10;;;18.20;33.80;;;;;;10326001;28;20267;-72
2022/07/03 03:49:11;;;;;;;3.03;2.37;;;18.20;33.90;;;;;;10319524;28;20238;-73
2022/07/03 03:54:14;;;;;;;2.40;2.20;;;18.20;34.70;;;;;;10321269;28;20238;-73
2022/07/03 03:59:17;;;;;;;2.30;1.90;;;18.20;34.20;;;;;;10324212;28;20230;-72
2022/07/03 04:04:22;;;;;;;2.50;2.10;;;18.20;34.20;;;;;;10320357;28;20235;-72
2022/07/03 04:09:25;;;;;;;2.07;1.97;;;18.10;34.80;;;;;;10325397;28;20234;-72
2022/07/03 04:14:28;;;;;;;3.17;2.40;;;18.10;34.70;;;;;;10318736;28;20765;-73
2022/07/03 04:19:33;;;;;;;2.50;2.30;;;18.10;34.80;;;;;;10318127;28;20269;-73
2022/07/03 04:24:36;;;;;;;3.23;2.27;;;18.00;34.80;;;;;;10317007;28;20238;-73
2022/07/03 04:29:40;;;;;;;2.83;2.07;;;17.90;34.70;;;;;;10317140;28;20597;-73
2022/07/03 04:34:45;;;;;;;3.63;2.40;;;17.90;34.70;;;;;;10322775;28;20238;-72
2022/07/03 04:39:48;;;;;;;2.50;2.30;;;17.80;35.60;;;;;;10308313;28;20230;-72
2022/07/03 04:44:51;;;;;;;2.70;2.50;;;17.70;35.40;;;;;;10312347;28;20230;-72
2022/07/03 04:49:55;;;;;;;2.40;2.20;;;17.70;35.60;;;;;;10310881;28;20230;-73
2022/07/03 04:54:59;;;;;;;2.23;2.10;;;17.80;36.60;;;;;;10314096;28;20246;-72
2022/07/03 05:00:02;;;;;;;3.43;2.50;;;17.80;36.20;;;;;;10310482;28;20219;-71
2022/07/03 05:05:08;;;;;;;2.60;2.40;;;17.90;36.50;;;;;;10310251;28;20231;-72
2022/07/03 05:10:11;;;;;;;2.80;2.60;;;17.90;37.30;;;;;;10311410;28;20254;-74
2022/07/03 05:15:15;;;;;;;2.87;2.47;;;18.10;37.10;;;;;;10308467;28;20257;-72
2022/07/03 05:20:27;;;;;;;3.87;2.50;;;18.30;37.20;;;;;;10308179;28;20234;-72
2022/07/03 05:25:32;;;;;;;3.03;2.73;;;18.40;37.90;;;;;;10306883;28;20227;-73
2022/07/03 05:30:35;;;;;;;2.87;2.60;;;18.60;37.60;;;;;;10311548;28;20227;-73
2022/07/03 05:35:40;;;;;;;2.57;2.37;;;18.80;37.60;;;;;;10311998;28;20215;-73
2022/07/03 05:40:43;;;;;;;2.80;2.60;;;19.00;38.10;;;;;;10312913;28;20285;-73
2022/07/03 05:45:46;;;;;;;2.53;2.33;;;19.20;37.70;;;;;;10313721;28;20227;-73
2022/07/03 05:50:51;;;;;;;2.77;2.57;;;19.40;37.90;;;;;;10313335;28;20235;-73
2022/07/03 05:55:57;;;;;;;3.60;3.30;;;19.50;38.30;;;;;;10314655;28;20227;-72
2022/07/03 06:01:00;;;;;;;3.30;3.00;;;19.70;37.90;;;;;;10319935;28;20730;-72
2022/07/03 06:06:05;;;;;;;3.33;3.00;;;19.90;37.80;;;;;;10321115;28;20231;-71
2022/07/03 06:11:08;;;;;;;3.83;2.80;;;20.10;38.40;;;;;;10320970;28;20227;-73
2022/07/03 06:16:11;;;;;;;3.87;3.47;;;20.40;38.90;;;;;;10322463;28;20226;-72
2022/07/03 06:21:17;;;;;;;3.00;2.80;;;20.50;38.10;;;;;;10319738;28;20230;-73
2022/07/03 06:26:20;;;;;;;2.80;2.53;;;20.70;38.60;;;;;;10326692;28;20486;-73
2022/07/03 06:31:23;;;;;;;2.67;2.47;;;20.90;38.20;;;;;;10317583;28;20590;-73
2022/07/03 06:36:28;;;;;;;2.70;2.50;;;21.20;37.90;;;;;;10317910;28;20234;-73
2022/07/03 06:41:31;;;;;;;3.23;2.80;;;21.40;38.30;;;;;;10319316;28;20227;-73
2022/07/03 06:46:34;;;;;;;2.60;2.40;;;21.60;37.90;;;;;;10326972;28;20254;-73
2022/07/03 06:51:39;;;;;;;2.33;2.13;;;21.90;38.20;;;;;;10321435;28;20230;-73
2022/07/03 06:56:42;;;;;;;2.60;2.40;;;22.10;38.40;;;;;;10316715;28;20249;-73
2022/07/03 07:01:46;;;;;;;3.47;3.17;;;22.30;38.50;;;;;;10319864;28;20714;-73
2022/07/03 07:06:50;;;;;;;4.27;3.97;;;22.60;38.80;;;;;;10319204;28;20624;-73
2022/07/03 07:11:53;;;;;;;2.90;2.40;;;22.90;39.10;;;;;;10314540;28;20231;-73
2022/07/03 07:16:57;;;;;;;3.93;2.37;;;23.20;39.10;;;;;;10311211;28;20674;-73
2022/07/03 07:22:02;;;;;;;2.20;2.10;;;23.50;38.40;;;;;;10316698;28;20241;-71
2022/07/03 07:27:06;;;;;;;4.53;4.13;;;23.80;38.40;;;;;;10318336;28;20223;-71
2022/07/03 07:32:09;;;;;;;2.03;1.93;;;24.00;38.10;;;;;;10315733;28;20234;-73
2022/07/03 07:37:13;;;;;;;2.30;1.90;;;24.30;38.20;;;;;;10322084;28;20231;-74
2022/07/03 07:42:17;;;;;;;2.40;2.20;;;24.50;37.50;;;;;;10318881;28;20616;-72
2022/07/03 07:47:20;;;;;;;2.10;2.00;;;24.70;37.40;;;;;;10319968;28;20242;-74
2022/07/03 07:52:25;;;;;;;1.93;1.83;;;24.90;37.00;;;;;;10302421;28;20234;-73
2022/07/03 07:57:35;;;;;;;2.10;2.00;;;25.10;37.30;;;;;;10308081;28;20722;-73
2022/07/03 08:08:00;;;;;;;8.47;7.70;;;25.60;36.10;;;;;;10315588;28;20227;-73
2022/07/03 08:13:04;;;;;;;8.20;7.50;;;25.80;35.60;;;;;;10294558;28;20219;-73
2022/07/03 08:18:07;;;;;;;5.10;3.83;;;26.00;35.30;;;;;;10267578;28;21127;-72
2022/07/03 08:23:12;;;;;;;139.17;59.13;;;26.20;34.30;;;;;;10271512;28;20267;-74
2022/07/03 08:28:15;;;;;;;100.57;31.27;;;26.40;34.20;;;;;;10284306;28;20223;-73
2022/07/03 08:33:18;;;;;;;11.37;5.53;;;26.50;33.60;;;;;;10275535;28;20235;-75
2022/07/03 08:38:30;;;;;;;622.97;556.80;;;26.70;33.70;;;;;;10294614;28;20236;-68
2022/07/03 08:43:35;;;;;;;60.83;53.70;;;26.90;33.00;;;;;;10277535;28;20235;-68
2022/07/03 08:48:40;;;;;;;25.23;22.73;;;27.10;33.90;;;;;;10284527;28;20239;-69
2022/07/03 08:53:47;;;;;;;10.23;9.33;;;27.40;33.60;;;;;;10290337;28;20232;-70
2022/07/03 08:58:50;;;;;;;4.57;4.20;;;27.60;32.30;;;;;;10288473;28;20242;-69
2022/07/03 09:03:55;;;;;;;2.40;2.30;;;27.90;32.60;;;;;;10282346;28;20232;-69
2022/07/03 09:09:01;;;;;;;1.90;1.80;;;28.20;31.90;;;;;;10294475;28;20786;-69
2022/07/03 09:14:06;;;;;;;2.00;1.90;;;28.40;31.10;;;;;;10309918;28;20231;-69
2022/07/03 09:19:10;;;;;;;1.77;1.67;;;28.60;31.50;;;;;;10323069;28;20624;-69
2022/07/03 09:24:14;;;;;;;1.70;1.60;;;28.80;31.40;;;;;;10315052;28;20253;-74
2022/07/03 09:29:20;;;;;;;1.40;1.40;;;29.10;30.50;;;;;;10303066;28;20219;-74
2022/07/03 09:34:26;;;;;;;2.17;1.60;;;29.30;30.30;;;;;;10318558;28;20862;-74
2022/07/03 09:39:34;;;;;;;1.70;1.57;;;29.40;30.30;;;;;;10308919;28;20230;-69
2022/07/03 09:44:40;;;;;;;1.33;1.30;;;29.50;29.80;;;;;;10318704;28;21292;-69
2022/07/03 09:49:52;;;;;;;1.70;1.60;;;29.60;29.50;;;;;;10316801;28;20311;-69
2022/07/03 09:54:58;;;;;;;1.57;1.50;;;29.80;28.30;;;;;;10311858;28;20242;-68
2022/07/03 10:00:14;;;;;;;2.20;2.10;;;30.00;28.30;;;;;;10320365;28;20230;-71
2022/07/03 10:05:17;;;;;;;1.80;1.70;;;30.10;26.40;;;;;;10314042;28;20238;-69
2022/07/03 10:10:23;;;;;;;1.60;1.50;;;30.10;28.10;;;;;;10319275;28;20223;-69
2022/07/03 10:15:28;;;;;;;1.70;1.60;;;30.20;27.40;;;;;;10319342;28;20257;-68
2022/07/03 10:20:35;;;;;;;1.67;1.57;;;30.30;27.80;;;;;;10331334;28;20615;-74
2022/07/03 10:25:42;;;;;;;1.33;1.33;;;30.50;27.10;;;;;;10321767;28;20219;-71
2022/07/03 10:30:47;;;;;;;1.50;1.40;;;30.60;26.60;;;;;;10322936;28;20717;-71
2022/07/03 10:35:52;;;;;;;1.70;1.60;;;30.80;27.00;;;;;;10323387;28;20622;-71
2022/07/03 10:46:24;;;;;;;1.30;1.30;;;31.10;25.30;;;;;;10318387;28;20618;-71
2022/07/03 10:51:29;;;;;;;1.30;1.30;;;31.20;25.60;;;;;;10318309;28;20333;-69
2022/07/03 10:57:07;;;;;;;1.60;1.60;;;31.30;25.70;;;;;;10321486;28;20223;-72
2022/07/03 11:02:18;;;;;;;1.60;1.50;;;31.30;25.60;;;;;;10319286;28;20234;-71
2022/07/03 11:07:22;;;;;;;1.40;1.30;;;31.40;24.90;;;;;;10318078;28;20631;-73
2022/07/03 11:12:57;;;;;;;1.60;1.50;;;31.40;25.20;;;;;;10322859;28;20234;-73
2022/07/03 11:18:27;;;;;;;1.47;1.40;;;31.50;24.80;;;;;;10318256;28;20666;-73
2022/07/03 11:23:38;;;;;;;1.23;1.23;;;31.60;24.50;;;;;;10313850;28;20281;-73
2022/07/03 11:28:53;;;;;;;1.30;1.23;;;31.70;24.00;;;;;;10316291;28;20222;-73
2022/07/03 11:33:59;;;;;;;1.20;1.20;;;31.80;23.80;;;;;;10313098;28;20227;-73
2022/07/03 11:39:09;;;;;;;1.10;1.10;;;31.90;22.70;;;;;;10310320;28;20233;-73
2022/07/03 11:44:20;;;;;;;1.30;1.20;;;32.00;23.10;;;;;;10309935;28;20235;-72
2022/07/03 11:49:25;;;;;;;1.30;1.30;;;32.10;22.40;;;;;;10317502;28;20225;-72
2022/07/03 11:54:32;;;;;;;1.23;1.20;;;32.20;23.40;;;;;;10310112;28;20242;-71
2022/07/03 11:59:37;;;;;;;1.20;1.20;;;32.30;22.70;;;;;;10320740;28;20234;-73
2022/07/03 12:04:40;;;;;;;1.30;1.30;;;32.30;22.30;;;;;;10321619;28;20238;-72
2022/07/03 12:09:45;;;;;;;1.10;1.10;;;32.50;22.40;;;;;;10318878;28;20227;-73
2022/07/03 12:14:52;;;;;;;1.20;1.20;;;32.50;22.40;;;;;;10320801;28;20231;-73
2022/07/03 12:19:58;;;;;;;1.13;1.13;;;32.50;21.50;;;;;;10321755;28;20257;-73
2022/07/03 12:25:04;;;;;;;1.30;1.30;;;32.50;21.40;;;;;;10316130;28;20679;-73
2022/07/03 12:30:10;;;;;;;1.10;1.10;;;32.50;21.30;;;;;;10303461;28;20230;-73
2022/07/03 12:35:13;;;;;;;1.10;1.10;;;32.50;20.40;;;;;;10309752;28;20231;-73
2022/07/03 12:40:18;;;;;;;1.20;1.20;;;32.50;21.20;;;;;;10305355;28;20229;-74
2022/07/03 12:45:24;;;;;;;1.10;1.10;;;32.50;21.20;;;;;;10307987;28;20234;-73
2022/07/03 12:50:27;;;;;;;1.23;1.10;;;32.50;20.60;;;;;;10311072;28;20237;-73
2022/07/03 12:55:37;;;;;;;1.23;1.10;;;32.70;21.00;;;;;;10310862;28;20234;-73
2022/07/03 13:00:47;;;;;;;1.00;1.00;;;32.70;20.30;;;;;;10310494;28;20239;-73
2022/07/03 13:05:50;;;;;;;0.90;0.90;;;32.70;19.30;;;;;;10312831;28;20255;-73
2022/07/03 13:10:56;;;;;;;1.13;1.13;;;32.80;19.80;;;;;;10327589;28;20234;-73
2022/07/03 13:16:01;;;;;;;1.10;1.10;;;32.90;19.30;;;;;;10324641;28;20317;-74
2022/07/03 13:21:04;;;;;;;1.10;1.10;;;32.90;19.30;;;;;;10317750;28;20234;-73
2022/07/03 13:26:07;;;;;;;1.10;1.10;;;33.00;19.50;;;;;;10316689;28;20587;-73
2022/07/03 13:31:12;;;;;;;1.00;1.00;;;33.00;19.40;;;;;;10314400;28;20234;-69
2022/07/03 13:36:17;;;;;;;2.33;1.20;;;33.10;18.30;;;;;;10317254;28;20226;-69
2022/07/03 13:41:22;;;;;;;1.30;1.20;;;33.10;18.60;;;;;;10316763;28;20299;-69
2022/07/03 13:46:27;;;;;;;1.40;1.30;;;33.20;19.10;;;;;;10310185;28;20361;-76
2022/07/03 13:51:30;;;;;;;1.00;1.00;;;33.20;17.60;;;;;;10317975;28;20293;-76
2022/07/03 13:56:33;;;;;;;1.00;1.00;;;33.30;18.60;;;;;;10319097;28;20241;-74
2022/07/03 14:01:38;;;;;;;2.67;1.07;;;33.40;18.70;;;;;;10319815;28;20226;-75
2022/07/03 14:06:41;;;;;;;1.17;1.17;;;33.40;17.60;;;;;;10325615;28;20219;-69
2022/07/03 14:11:44;;;;;;;2.53;1.17;;;33.40;18.00;;;;;;10328823;28;20232;-70
2022/07/03 14:16:49;;;;;;;1.17;1.17;;;33.40;17.70;;;;;;10328736;28;20253;-71
2022/07/03 14:21:53;;;;;;;1.30;1.20;;;33.30;17.50;;;;;;10322203;28;20607;-74
2022/07/03 14:32:31;;;;;;;1.10;1.10;;;33.40;17.90;;;;;;10308382;28;20230;-72
2022/07/03 14:37:34;;;;;;;1.10;1.10;;;33.30;17.50;;;;;;10306785;28;20222;-72
2022/07/03 14:42:37;;;;;;;1.10;1.10;;;33.40;17.70;;;;;;10308604;28;20245;-72
2022/07/03 14:47:42;;;;;;;1.73;1.27;;;33.50;17.70;;;;;;10294918;28;20219;-74
2022/07/03 14:52:45;;;;;;;1.13;1.13;;;33.60;17.80;;;;;;10305776;28;20900;-74
2022/07/03 14:57:54;;;;;;;1.40;1.30;;;33.60;17.80;;;;;;10304864;28;20746;-75
2022/07/03 15:03:05;;;;;;;4.03;1.60;;;33.70;16.20;;;;;;10304208;28;20320;-75
2022/07/03 15:08:30;;;;;;;1.17;1.17;;;33.70;16.40;;;;;;10310744;28;20688;-74
2022/07/03 15:13:34;;;;;;;1.10;1.10;;;33.70;16.70;;;;;;10307958;28;20429;-75
2022/07/03 15:18:40;;;;;;;1.23;1.20;;;33.70;17.00;;;;;;10313510;28;20231;-73
2022/07/03 15:23:43;;;;;;;1.40;1.30;;;33.80;16.70;;;;;;10310788;28;20234;-74
2022/07/03 15:28:47;;;;;;;1.30;1.20;;;33.80;16.90;;;;;;10311187;28;20242;-67
2022/07/03 15:33:52;;;;;;;1.33;1.23;;;33.70;16.90;;;;;;10308680;28;20235;-67
2022/07/03 15:39:03;;;;;;;1.30;1.30;;;33.70;16.50;;;;;;10315747;28;20234;-73
2022/07/03 15:44:20;;;;;;;1.30;1.20;;;33.80;16.20;;;;;;10318958;28;20698;-74
2022/07/03 15:49:30;;;;;;;1.20;1.10;;;33.90;16.00;;;;;;10318690;28;20226;-74
2022/07/03 15:54:42;;;;;;;1.10;1.10;;;33.90;16.40;;;;;;10311899;28;20234;-76
2022/07/03 15:59:49;;;;;;;1.27;1.20;;;33.90;15.60;;;;;;10318867;28;20226;-75
2022/07/03 16:05:04;;;;;;;1.10;1.10;;;33.90;15.60;;;;;;10317331;28;20230;-70
2022/07/03 16:10:10;;;;;;;1.17;1.17;;;33.80;15.60;;;;;;10318717;28;20257;-71
2022/07/03 16:15:13;;;;;;;1.17;1.17;;;33.90;15.60;;;;;;10321885;28;20235;-75
2022/07/03 16:20:20;;;;;;;1.10;1.10;;;33.80;16.00;;;;;;10324972;28;20588;-76
2022/07/03 16:25:24;;;;;;;1.53;1.00;;;33.80;15.30;;;;;;10322089;28;20224;-76
2022/07/03 16:30:28;;;;;;;2.17;1.30;;;33.80;15.80;;;;;;10319067;28;20233;-75
2022/07/03 16:35:40;;;;;;;1.13;1.10;;;33.80;15.80;;;;;;10319583;28;20235;-75
2022/07/03 16:40:44;;;;;;;1.20;1.20;;;33.90;15.40;;;;;;10326091;28;20232;-75
2022/07/03 16:45:51;;;;;;;1.10;1.10;;;33.90;15.60;;;;;;10319196;28;20253;-76
2022/07/03 16:50:59;;;;;;;1.30;1.20;;;33.80;15.00;;;;;;10315897;28;20235;-76
2022/07/03 16:56:03;;;;;;;1.47;1.30;;;33.80;14.60;;;;;;10324647;28;20235;-76
2022/07/03 17:01:11;;;;;;;1.00;1.00;;;33.80;15.20;;;;;;10316837;28;20244;-75
2022/07/03 17:06:16;;;;;;;1.33;1.27;;;33.80;15.10;;;;;;10320693;28;20574;-75
2022/07/03 17:11:21;;;;;;;1.10;1.00;;;33.70;14.80;;;;;;10324444;28;20245;-76
2022/07/03 17:16:29;;;;;;;1.10;1.10;;;33.70;15.00;;;;;;10316232;28;20715;-73
2022/07/03 17:21:42;;;;;;;1.20;1.10;;;33.70;14.50;;;;;;10315901;28;20803;-72
2022/07/03 17:26:49;;;;;;;1.30;1.20;;;33.70;14.50;;;;;;10318271;28;20223;-72
2022/07/03 17:31:54;;;;;;;1.20;1.10;;;33.60;14.60;;;;;;10319868;28;20223;-73
2022/07/03 17:37:00;;;;;;;1.23;1.20;;;33.70;14.50;;;;;;10325687;28;20227;-72
2022/07/03 17:42:13;;;;;;;1.50;1.10;;;33.70;14.70;;;;;;10323553;28;20291;-70
2022/07/03 17:47:17;;;;;;;1.43;1.10;;;33.70;14.80;;;;;;10316253;28;20664;-70
2022/07/03 17:52:26;;;;;;;1.30;1.20;;;33.70;15.00;;;;;;10317562;28;20227;-70
2022/07/03 17:57:37;;;;;;;1.80;1.00;;;33.70;14.50;;;;;;10326040;28;20242;-70
2022/07/03 18:02:42;;;;;;;1.10;1.10;;;33.80;15.10;;;;;;10328757;28;20359;-75
2022/07/03 18:08:01;;;;;;;1.10;1.10;;;33.80;14.60;;;;;;10327804;28;20659;-75
2022/07/03 18:13:11;;;;;;;1.00;1.00;;;33.70;14.60;;;;;;10323025;28;20234;-74
2022/07/03 18:18:16;;;;;;;0.90;0.90;;;33.60;14.60;;;;;;10323460;28;20242;-75
2022/07/03 18:23:29;;;;;;;1.10;1.00;;;33.60;14.80;;;;;;10325616;28;20246;-75
2022/07/03 18:28:36;;;;;;;1.17;1.13;;;33.40;15.50;;;;;;10321696;28;20223;-75
2022/07/03 18:33:39;;;;;;;1.47;1.37;;;33.30;16.60;;;;;;10320384;28;20241;-75
2022/07/03 18:38:44;;;;;;;1.10;1.10;;;33.10;16.80;;;;;;10331188;28;20234;-75
2022/07/03 18:43:48;;;;;;;2.60;1.30;;;33.10;17.50;;;;;;10327023;28;20230;-75
2022/07/03 18:48:51;;;;;;;1.00;1.00;;;32.90;17.50;;;;;;10321807;28;20231;-74
2022/07/03 18:54:07;;;;;;;1.03;1.03;;;32.70;17.80;;;;;;10321086;28;20235;-75
2022/07/03 18:59:16;;;;;;;2.83;1.20;;;32.60;18.00;;;;;;10317978;28;20304;-73
2022/07/03 19:04:36;;;;;;;8.60;1.50;;;32.40;17.70;;;;;;10318019;28;20234;-73
2022/07/03 19:09:45;;;;;;;6.23;1.77;;;32.20;17.70;;;;;;10319645;28;20235;-73
2022/07/03 19:14:56;;;;;;;6.83;2.10;;;32.00;18.10;;;;;;10317278;28;20235;-73
2022/07/03 19:20:00;;;;;;;3.87;1.60;;;31.80;18.10;;;;;;10317547;28;20242;-73
2022/07/03 19:25:12;;;;;;;4.47;1.27;;;31.70;18.30;;;;;;10317420;28;20684;-73
2022/07/03 19:30:17;;;;;;;1.40;1.30;;;31.50;18.90;;;;;;10324732;28;20580;-73
2022/07/03 19:35:20;;;;;;;1.70;1.20;;;31.30;19.20;;;;;;10319147;28;20235;-73
2022/07/03 19:40:25;;;;;;;4.87;1.53;;;31.20;19.10;;;;;;10318756;28;20231;-73
2022/07/03 19:45:28;;;;;;;2.13;1.70;;;31.00;19.60;;;;;;10312399;28;20237;-73
2022/07/03 19:50:31;;;;;;;7.67;2.10;;;30.80;19.50;;;;;;10321129;28;20268;-70
2022/07/03 19:55:36;;;;;;;11.27;2.40;;;30.50;19.50;;;;;;10309513;28;20614;-70
2022/07/03 20:00:39;;;;;;;10.03;2.50;;;30.30;20.00;;;;;;10316768;28;20227;-70
2022/07/03 20:05:43;;;;;;;11.87;2.10;;;29.90;20.10;;;;;;10307971;28;20743;-70
2022/07/03 20:10:47;;;;;;;9.93;2.57;;;29.70;20.70;;;;;;10315424;28;20286;-70
2022/07/03 20:15:51;;;;;;;7.83;2.23;;;29.50;20.90;;;;;;10315452;28;20235;-70
2022/07/03 20:20:54;;;;;;;4.70;2.10;;;29.20;20.80;;;;;;10318584;28;20329;-70
2022/07/03 20:26:00;;;;;;;7.90;2.17;;;29.00;20.90;;;;;;10321368;28;20337;-70
2022/07/03 20:31:03;;;;;;;4.20;1.87;;;28.80;21.60;;;;;;10323569;28;20234;-70
2022/07/03 20:36:06;;;;;;;3.03;1.80;;;28.60;21.40;;;;;;10322443;28;20308;-70
2022/07/03 20:41:11;;;;;;;2.40;1.40;;;28.40;21.70;;;;;;10325287;28;20231;-70
2022/07/03 20:46:14;;;;;;;1.63;1.53;;;28.00;22.30;;;;;;10316620;28;20305;-70
2022/07/03 20:51:18;;;;;;;1.53;1.43;;;27.80;22.40;;;;;;10325276;28;23523;-70
2022/07/03 20:56:23;;;;;;;2.10;1.90;;;27.50;22.80;;;;;;10319896;28;21760;-70
2022/07/03 21:01:28;;;;;;;3.60;2.30;;;27.20;23.50;;;;;;10319444;28;20310;-70
2022/07/03 21:06:34;;;;;;;2.70;2.10;;;26.90;23.30;;;;;;10323262;28;20531;-70
2022/07/03 21:11:40;;;;;;;3.23;2.30;;;26.70;23.80;;;;;;10322229;28;20259;-70
2022/07/03 21:16:46;;;;;;;4.10;1.83;;;26.60;24.30;;;;;;10318910;28;20238;-70
2022/07/03 21:21:50;;;;;;;3.63;1.70;;;26.50;24.50;;;;;;10317132;28;20520;-70
2022/07/03 21:26:55;;;;;;;2.43;1.63;;;26.30;24.50;;;;;;10314846;28;20722;-70
2022/07/03 21:31:58;;;;;;;2.57;1.57;;;26.20;25.00;;;;;;10324929;28;20782;-70
2022/07/03 21:37:01;;;;;;;8.77;1.60;;;26.00;24.90;;;;;;10330678;28;20340;-73
2022/07/03 21:42:07;;;;;;;3.27;1.30;;;25.70;25.10;;;;;;10325901;28;20234;-71
2022/07/03 21:47:10;;;;;;;1.50;1.40;;;25.40;26.20;;;;;;10329848;28;20227;-70
2022/07/03 21:52:13;;;;;;;2.10;1.70;;;25.40;26.20;;;;;;10334221;28;20239;-70
2022/07/03 21:57:20;;;;;;;3.60;1.30;;;25.40;26.30;;;;;;10326019;28;20242;-70
2022/07/03 22:02:23;;;;;;;1.50;1.40;;;25.40;26.80;;;;;;10330030;28;20234;-70
2022/07/03 22:07:26;;;;;;;1.50;1.40;;;25.40;26.20;;;;;;10327872;28;20262;-70
2022/07/03 22:12:34;;;;;;;1.30;1.20;;;25.30;26.50;;;;;;10327508;28;20286;-70
2022/07/03 22:17:41;;;;;;;3.07;1.43;;;25.20;26.90;;;;;;10322215;28;20242;-70
2022/07/03 22:22:45;;;;;;;4.13;1.40;;;25.10;27.60;;;;;;10329624;28;20523;-71
2022/07/03 22:27:49;;;;;;;1.43;1.33;;;25.10;27.10;;;;;;10330093;28;20238;-70
2022/07/03 22:32:53;;;;;;;1.67;1.40;;;25.10;27.80;;;;;;10322821;28;20234;-70
2022/07/03 22:37:56;;;;;;;2.10;1.50;;;25.10;27.20;;;;;;10320061;28;20672;-70
2022/07/03 22:43:01;;;;;;;1.60;1.50;;;25.10;27.20;;;;;;10328045;28;20238;-79
2022/07/03 22:48:04;;;;;;;3.17;1.70;;;25.00;27.80;;;;;;10326262;28;20230;-78
2022/07/03 22:53:09;;;;;;;1.63;1.50;;;24.90;27.50;;;;;;10325094;28;20607;-77
2022/07/03 22:58:13;;;;;;;1.70;1.60;;;24.80;27.50;;;;;;10328080;28;20226;-78
2022/07/03 23:03:16;;;;;;;1.80;1.70;;;24.70;28.50;;;;;;10325149;28;20238;-78
2022/07/03 23:08:20;;;;;;;1.80;1.70;;;24.50;27.80;;;;;;10326450;28;20436;-77
2022/07/03 23:13:24;;;;;;;1.70;1.60;;;24.20;28.10;;;;;;10319749;28;20242;-78
2022/07/03 23:18:27;;;;;;;1.60;1.50;;;24.10;28.40;;;;;;10328009;28;20231;-78
2022/07/03 23:23:30;;;;;;;1.70;1.60;;;24.00;28.00;;;;;;10325878;28;20245;-78
2022/07/03 23:28:35;;;;;;;1.70;1.40;;;24.00;28.10;;;;;;10320499;28;20253;-79
2022/07/03 23:33:38;;;;;;;1.60;1.50;;;24.00;28.60;;;;;;10331259;28;20233;-75
2022/07/03 23:38:41;;;;;;;2.63;1.50;;;23.90;28.20;;;;;;10321235;28;20549;-75
2022/07/03 23:43:46;;;;;;;1.80;1.70;;;23.80;28.50;;;;;;10321505;28;20223;-75
2022/07/03 23:54:11;;;;;;;1.50;1.40;;;23.60;29.00;;;;;;10280576;28;20223;-75
2022/07/03 23:59:15;;;;;;;1.80;1.70;;;23.40;29.00;;;;;;10286568;28;20235;-70
